createdAt,value
2018-01-19T00:01:06.320Z,3.90
2018-01-19T00:03:34.602Z,3.90
2018-01-19T00:06:03.003Z,3.90
2018-01-19T00:08:31.533Z,4.00
2018-01-19T00:11:01.300Z,4.00
2018-01-19T00:13:29.597Z,4.00
2018-01-19T00:15:57.889Z,3.90
2018-01-19T00:18:26.200Z,3.80
2018-01-19T00:20:55.279Z,3.90
2018-01-19T00:23:24.351Z,3.90
2018-01-19T00:25:52.631Z,3.90
2018-01-19T00:28:20.980Z,3.90
2018-01-19T00:30:49.416Z,4.00
2018-01-19T00:33:17.734Z,3.90
2018-01-19T00:35:46.048Z,3.80
2018-01-19T00:38:15.101Z,3.70
2018-01-19T00:40:43.404Z,3.70
2018-01-19T00:43:11.716Z,3.90
2018-01-19T00:45:40.030Z,3.90
2018-01-19T00:48:08.344Z,3.90
2018-01-19T00:50:36.640Z,3.80
2018-01-19T00:53:04.948Z,3.90
2018-01-19T00:55:33.261Z,4.00
2018-01-19T00:58:02.076Z,4.00
2018-01-19T01:00:30.391Z,3.90
2018-01-19T01:03:00.285Z,4.00
2018-01-19T01:05:30.140Z,3.90
2018-01-19T01:07:58.452Z,3.90
2018-01-19T01:10:26.730Z,3.90
2018-01-19T01:12:55.062Z,3.90
2018-01-19T01:15:23.367Z,4.00
2018-01-19T01:17:51.644Z,4.10
2018-01-19T01:20:19.995Z,4.10
2018-01-19T01:22:48.293Z,4.00
2018-01-19T01:25:17.353Z,3.90
2018-01-19T01:27:46.451Z,3.90
2018-01-19T01:30:15.536Z,3.90
2018-01-19T01:32:43.845Z,3.90
2018-01-19T01:35:12.150Z,3.90
2018-01-19T01:37:41.232Z,4.10
2018-01-19T01:40:10.311Z,4.10
2018-01-19T01:42:39.409Z,4.00
2018-01-19T01:45:07.696Z,4.10
2018-01-19T01:47:36.028Z,4.00
2018-01-19T01:50:04.317Z,4.00
2018-01-19T01:52:32.616Z,4.00
2018-01-19T01:55:01.343Z,4.10
2018-01-19T01:57:29.669Z,4.20
2018-01-19T01:59:57.961Z,4.30
2018-01-19T02:02:27.011Z,4.30
2018-01-19T02:04:55.311Z,4.30
2018-01-19T02:07:23.624Z,4.20
2018-01-19T02:09:51.925Z,4.30
2018-01-19T02:12:21.151Z,4.20
2018-01-19T02:14:49.472Z,4.20
2018-01-19T02:17:17.765Z,4.00
2018-01-19T02:19:46.825Z,3.90
2018-01-19T02:22:15.917Z,3.90
2018-01-19T02:24:44.650Z,3.90
2018-01-19T02:27:13.704Z,3.80
2018-01-19T02:29:43.631Z,3.90
2018-01-19T02:32:11.920Z,3.90
2018-01-19T02:34:40.256Z,3.90
2018-01-19T02:37:08.568Z,3.80
2018-01-19T02:39:36.882Z,3.80
2018-01-19T02:42:05.439Z,3.80
2018-01-19T02:44:33.758Z,3.90
2018-01-19T02:47:02.060Z,3.80
2018-01-19T02:49:30.369Z,3.80
2018-01-19T02:51:58.654Z,3.70
2018-01-19T02:54:26.959Z,3.70
2018-01-19T02:56:55.739Z,3.70
2018-01-19T02:59:24.017Z,3.70
2018-01-19T03:01:52.356Z,3.70
2018-01-19T03:04:20.676Z,3.70
2018-01-19T03:06:49.004Z,3.70
2018-01-19T03:09:17.325Z,3.60
2018-01-19T03:11:45.644Z,3.50
2018-01-19T03:14:13.971Z,3.40
2018-01-19T03:16:42.899Z,3.40
2018-01-19T03:19:11.213Z,3.30
2018-01-19T03:21:39.505Z,3.30
2018-01-19T03:24:08.584Z,3.40
2018-01-19T03:26:36.867Z,3.40
2018-01-19T03:29:05.199Z,3.40
2018-01-19T03:31:34.278Z,3.60
2018-01-19T03:34:02.585Z,3.50
2018-01-19T03:36:30.895Z,3.60
2018-01-19T03:39:00.197Z,3.50
2018-01-19T03:41:28.499Z,3.50
2018-01-19T03:43:56.822Z,3.50
2018-01-19T03:46:25.108Z,3.50
2018-01-19T03:48:53.420Z,3.40
2018-01-19T03:51:21.792Z,3.50
2018-01-19T03:53:50.356Z,3.60
2018-01-19T03:56:18.769Z,3.60
2018-01-19T03:58:47.832Z,3.70
2018-01-19T04:01:16.914Z,3.70
2018-01-19T04:03:45.977Z,3.70
2018-01-19T04:06:15.079Z,3.80
2018-01-19T04:08:43.372Z,3.80
2018-01-19T04:11:12.709Z,3.90
2018-01-19T04:13:41.238Z,3.90
2018-01-19T04:16:09.561Z,3.90
2018-01-19T04:18:37.844Z,3.90
2018-01-19T04:21:06.129Z,4.00
2018-01-19T04:23:34.469Z,3.90
2018-01-19T04:26:02.765Z,3.90
2018-01-19T04:28:31.085Z,4.00
2018-01-19T04:30:59.428Z,4.00
2018-01-19T04:33:27.764Z,4.00
2018-01-19T04:35:56.050Z,4.00
2018-01-19T04:38:24.345Z,4.00
2018-01-19T04:40:52.686Z,4.10
2018-01-19T04:43:21.003Z,4.20
2018-01-19T04:45:49.424Z,4.20
2018-01-19T04:48:18.753Z,4.20
2018-01-19T04:50:47.056Z,4.20
2018-01-19T04:53:15.355Z,4.10
2018-01-19T04:55:43.772Z,4.00
2018-01-19T04:58:12.835Z,4.00
2018-01-19T05:00:41.172Z,4.00
2018-01-19T05:03:10.234Z,4.00
2018-01-19T05:05:38.920Z,4.00
2018-01-19T05:08:07.964Z,4.20
2018-01-19T05:10:36.271Z,4.10
2018-01-19T05:13:04.604Z,4.20
2018-01-19T05:15:32.975Z,4.20
2018-01-19T05:18:01.258Z,4.10
2018-01-19T05:20:29.561Z,4.10
2018-01-19T05:22:58.632Z,4.00
2018-01-19T05:25:27.712Z,4.00
2018-01-19T05:27:56.785Z,4.00
2018-01-19T05:30:25.858Z,4.00
2018-01-19T05:32:54.913Z,4.00
2018-01-19T05:35:23.261Z,4.00
2018-01-19T05:37:51.559Z,4.00
2018-01-19T05:40:19.985Z,4.10
2018-01-19T05:42:48.415Z,4.00
2018-01-19T05:45:16.723Z,4.00
2018-01-19T05:47:45.024Z,4.00
2018-01-19T05:50:13.349Z,3.90
2018-01-19T05:52:43.108Z,4.00
2018-01-19T05:55:11.415Z,4.00
2018-01-19T05:57:41.058Z,4.10
2018-01-19T06:00:09.343Z,4.10
2018-01-19T06:02:38.416Z,4.00
2018-01-19T06:05:08.403Z,4.10
2018-01-19T06:07:37.484Z,4.10
2018-01-19T06:10:05.836Z,4.10
2018-01-19T06:12:34.165Z,3.90
2018-01-19T06:15:02.458Z,3.90
2018-01-19T06:17:31.906Z,3.90
2018-01-19T06:20:00.237Z,3.90
2018-01-19T06:22:28.515Z,3.90
2018-01-19T06:24:56.885Z,3.90
2018-01-19T06:27:26.651Z,3.80
2018-01-19T06:29:54.968Z,3.80
2018-01-19T06:32:23.281Z,3.80
2018-01-19T06:34:51.652Z,3.90
2018-01-19T06:37:20.032Z,3.90
2018-01-19T06:39:48.416Z,3.90
2018-01-19T06:42:16.708Z,3.90
2018-01-19T06:44:45.805Z,3.90
2018-01-19T06:47:14.091Z,3.90
2018-01-19T06:49:42.405Z,3.90
2018-01-19T06:52:10.714Z,3.90
2018-01-19T06:54:39.002Z,3.80
2018-01-19T06:57:07.315Z,3.80
2018-01-19T06:59:36.005Z,3.80
2018-01-19T07:02:04.385Z,3.70
2018-01-19T07:04:33.092Z,3.60
2018-01-19T07:07:01.408Z,3.70
2018-01-19T07:09:29.692Z,3.70
2018-01-19T07:11:58.076Z,3.60
2018-01-19T07:14:27.343Z,3.40
2018-01-19T07:16:56.685Z,3.30
2018-01-19T07:19:24.983Z,3.30
2018-01-19T07:21:55.923Z,3.30
2018-01-19T07:24:24.951Z,3.30
2018-01-19T07:26:53.196Z,3.20
2018-01-19T07:29:21.513Z,3.20
2018-01-19T07:31:49.795Z,3.20
2018-01-19T07:34:18.120Z,3.30
2018-01-19T07:36:46.414Z,3.30
2018-01-19T07:39:14.765Z,3.30
2018-01-19T07:41:43.059Z,3.30
2018-01-19T07:44:11.396Z,3.30
2018-01-19T07:46:39.680Z,3.30
2018-01-19T07:49:08.009Z,3.40
2018-01-19T07:51:36.317Z,3.40
2018-01-19T07:54:05.417Z,3.40
2018-01-19T07:56:33.897Z,3.40
2018-01-19T07:59:02.568Z,3.40
2018-01-19T08:01:30.868Z,3.40
2018-01-19T08:03:59.175Z,3.50
2018-01-19T08:06:27.617Z,3.40
2018-01-19T08:08:55.933Z,3.50
2018-01-19T08:11:24.249Z,3.50
2018-01-19T08:13:53.326Z,3.50
2018-01-19T08:16:21.612Z,3.50
2018-01-19T08:18:50.804Z,3.60
2018-01-19T08:21:19.088Z,3.70
2018-01-19T08:23:50.107Z,3.70
2018-01-19T08:26:19.210Z,3.70
2018-01-19T08:28:47.515Z,3.70
2018-01-19T08:31:16.023Z,3.70
2018-01-19T08:33:44.378Z,3.60
2018-01-19T08:36:12.656Z,3.50
2018-01-19T08:38:40.993Z,3.50
2018-01-19T08:41:09.324Z,3.40
2018-01-19T08:43:37.647Z,3.30
2018-01-19T08:46:05.991Z,3.20
2018-01-19T08:48:34.323Z,3.20
2018-01-19T08:51:02.704Z,3.20
2018-01-19T08:53:31.749Z,3.20
2018-01-19T08:56:00.113Z,3.20
2018-01-19T08:58:29.181Z,3.10
2018-01-19T09:00:57.487Z,3.10
2018-01-19T09:03:25.803Z,3.10
2018-01-19T09:05:54.267Z,3.20
2018-01-19T09:08:22.556Z,3.20
2018-01-19T09:10:50.897Z,3.20
2018-01-19T09:13:19.202Z,3.20
2018-01-19T09:15:47.500Z,3.20
2018-01-19T09:18:15.781Z,3.40
2018-01-19T09:20:44.100Z,3.40
2018-01-19T09:23:12.395Z,3.60
2018-01-19T09:25:40.728Z,3.70
2018-01-19T09:28:09.800Z,3.60
2018-01-19T09:30:38.083Z,3.60
2018-01-19T09:33:06.474Z,3.70
2018-01-19T09:35:34.787Z,3.70
2018-01-19T09:38:03.074Z,3.70
2018-01-19T09:40:31.377Z,3.70
2018-01-19T09:42:59.798Z,3.80
2018-01-19T09:45:28.851Z,3.80
2018-01-19T09:47:57.916Z,3.90
2018-01-19T09:50:26.240Z,3.90
2018-01-19T09:52:55.289Z,3.90
2018-01-19T09:55:23.601Z,3.90
2018-01-19T09:57:52.695Z,3.90
2018-01-19T10:00:21.715Z,3.80
2018-01-19T10:02:50.007Z,3.90
2018-01-19T10:05:18.585Z,3.90
2018-01-19T10:07:46.891Z,4.00
2018-01-19T10:10:21.127Z,4.10
2018-01-19T10:12:50.209Z,4.00
2018-01-19T10:15:18.519Z,4.00
2018-01-19T10:17:47.630Z,4.10
2018-01-19T10:20:15.917Z,4.10
2018-01-19T10:22:44.248Z,4.20
2018-01-19T10:25:13.313Z,4.40
2018-01-19T10:27:41.602Z,4.30
2018-01-19T10:30:09.916Z,4.40
2018-01-19T10:32:38.193Z,4.60
2018-01-19T10:35:06.508Z,4.60
2018-01-19T10:37:34.835Z,4.70
2018-01-19T10:40:03.132Z,4.70
2018-01-19T10:42:32.207Z,4.90
2018-01-19T10:45:00.523Z,4.90
2018-01-19T10:47:28.846Z,4.90
2018-01-19T10:49:57.158Z,4.90
2018-01-19T10:52:25.472Z,4.90
2018-01-19T10:54:53.884Z,4.80
2018-01-19T10:57:22.988Z,4.80
2018-01-19T10:59:51.278Z,4.80
2018-01-19T11:02:19.647Z,4.90
2018-01-19T11:04:47.984Z,4.90
2018-01-19T11:07:16.286Z,4.90
2018-01-19T11:09:43.896Z,5.00
2018-01-19T11:12:13.199Z,5.00
2018-01-19T11:14:42.281Z,5.10
2018-01-19T11:17:10.619Z,5.10
2018-01-19T11:19:38.925Z,5.00
2018-01-19T11:22:07.236Z,5.00
2018-01-19T11:24:35.584Z,5.10
2018-01-19T11:27:04.605Z,5.10
2018-01-19T11:29:32.912Z,5.10
2018-01-19T11:32:01.993Z,5.00
2018-01-19T11:34:37.771Z,4.90
2018-01-19T11:37:06.156Z,5.00
2018-01-19T11:39:35.246Z,5.00
2018-01-19T11:42:04.424Z,4.90
2018-01-19T11:44:33.744Z,5.00
2018-01-19T11:47:02.941Z,4.90
2018-01-19T11:49:31.263Z,4.90
2018-01-19T11:51:59.758Z,4.90
2018-01-19T11:54:28.129Z,5.00
2018-01-19T11:56:56.875Z,5.00
2018-01-19T11:59:25.211Z,5.00
2018-01-19T12:01:53.549Z,4.90
2018-01-19T12:04:22.637Z,5.00
2018-01-19T12:06:50.949Z,4.90
2018-01-19T12:09:19.782Z,5.00
2018-01-19T12:11:48.130Z,5.00
2018-01-19T12:14:17.497Z,5.00
2018-01-19T12:16:45.820Z,5.00
2018-01-19T12:19:14.160Z,5.00
2018-01-19T12:21:42.504Z,5.00
2018-01-19T12:24:12.266Z,5.00
2018-01-19T12:26:40.548Z,5.00
2018-01-19T12:29:08.852Z,5.10
2018-01-19T12:31:37.149Z,5.70
2018-01-19T12:34:05.486Z,5.10
2018-01-19T12:36:34.551Z,5.20
2018-01-19T12:39:02.864Z,5.10
2018-01-19T12:41:31.175Z,5.20
2018-01-19T12:43:59.620Z,5.20
2018-01-19T12:46:27.919Z,5.30
2018-01-19T12:48:56.993Z,5.30
2018-01-19T12:51:25.302Z,5.30
2018-01-19T12:53:56.053Z,5.30
2018-01-19T12:56:24.373Z,5.30
2018-01-19T12:58:52.699Z,5.30
2018-01-19T13:01:21.748Z,5.40
2018-01-19T13:03:50.064Z,5.40
2018-01-19T13:06:18.349Z,5.50
2018-01-19T13:08:53.540Z,5.80
2018-01-19T13:11:22.718Z,5.90
2018-01-19T13:13:51.023Z,6.20
2018-01-19T13:16:19.354Z,6.90
2018-01-19T13:18:49.282Z,7.40
2018-01-19T13:21:18.335Z,7.80
2018-01-19T13:23:46.757Z,8.30
2018-01-19T13:26:15.093Z,8.50
2018-01-19T13:28:43.474Z,9.00
2018-01-19T13:31:12.571Z,8.90
2018-01-19T13:33:40.912Z,8.90
2018-01-19T13:36:09.235Z,8.80
2018-01-19T13:38:38.311Z,8.60
2018-01-19T13:41:07.353Z,8.30
2018-01-19T13:43:35.651Z,8.30
2018-01-19T13:46:03.961Z,8.30
2018-01-19T13:48:32.271Z,8.10
2018-01-19T13:51:00.565Z,8.00
2018-01-19T13:53:29.032Z,8.00
2018-01-19T13:55:57.488Z,7.80
2018-01-19T13:58:25.787Z,7.90
2018-01-19T14:00:54.892Z,7.90
2018-01-19T14:03:23.203Z,7.80
2018-01-19T14:05:51.536Z,7.60
2018-01-19T14:08:20.604Z,7.00
2018-01-19T14:10:49.682Z,6.90
2018-01-19T14:13:18.075Z,6.80
2018-01-19T14:15:46.364Z,6.60
2018-01-19T14:18:14.674Z,6.40
2018-01-19T14:20:42.974Z,6.40
2018-01-19T14:23:11.294Z,6.50
2018-01-19T14:25:39.659Z,6.50
2018-01-19T14:28:07.962Z,6.30
2018-01-19T14:30:37.432Z,6.30
2018-01-19T14:33:05.721Z,6.30
2018-01-19T14:35:34.035Z,6.20
2018-01-19T14:38:02.348Z,6.10
2018-01-19T14:40:30.634Z,6.00
2018-01-19T14:42:58.970Z,5.90
2018-01-19T14:45:27.354Z,5.80
2018-01-19T14:47:55.676Z,5.80
2018-01-19T14:50:23.976Z,5.70
2018-01-19T14:52:52.301Z,5.70
2018-01-19T14:55:20.596Z,5.70
2018-01-19T14:57:48.913Z,5.70
2018-01-19T15:00:17.232Z,5.70
2018-01-19T15:02:45.514Z,5.60
2018-01-19T15:05:13.880Z,5.60
2018-01-19T15:07:42.208Z,5.60
2018-01-19T15:10:10.537Z,5.50
2018-01-19T15:12:38.859Z,5.50
2018-01-19T15:15:07.915Z,5.40
2018-01-19T15:17:36.222Z,5.30
2018-01-19T15:20:04.539Z,5.30
2018-01-19T15:22:33.648Z,5.20
2018-01-19T15:25:02.804Z,5.10
2018-01-19T15:27:31.131Z,5.10
2018-01-19T15:29:59.413Z,5.10
2018-01-19T15:32:27.692Z,5.00
2018-01-19T15:34:56.770Z,5.00
2018-01-19T15:37:25.851Z,5.00
2018-01-19T15:39:54.948Z,4.90
2018-01-19T15:42:23.360Z,4.90
2018-01-19T15:44:51.681Z,4.90
2018-01-19T15:47:19.987Z,4.80
2018-01-19T15:49:48.873Z,4.80
2018-01-19T15:52:17.220Z,4.70
2018-01-19T15:54:45.508Z,4.60
2018-01-19T15:57:13.816Z,4.60
2018-01-19T15:59:43.236Z,4.70
2018-01-19T16:02:11.550Z,4.60
2018-01-19T16:04:40.657Z,4.60
2018-01-19T16:07:08.977Z,4.60
2018-01-19T16:09:38.045Z,4.60
2018-01-19T16:12:06.367Z,4.60
2018-01-19T16:14:34.676Z,4.60
2018-01-19T16:17:02.996Z,4.60
2018-01-19T16:19:31.415Z,4.60
2018-01-19T16:21:59.694Z,4.60
2018-01-19T16:24:28.009Z,4.60
2018-01-19T16:26:57.082Z,4.70
2018-01-19T16:29:25.385Z,4.70
2018-01-19T16:31:54.473Z,4.80
2018-01-19T16:34:22.800Z,4.70
2018-01-19T16:36:51.866Z,4.90
2018-01-19T16:39:20.195Z,4.90
2018-01-19T16:41:49.477Z,4.80
2018-01-19T16:44:17.810Z,4.80
2018-01-19T16:46:46.444Z,4.80
2018-01-19T16:49:14.739Z,4.80
2018-01-19T16:51:43.059Z,4.80
2018-01-19T16:54:11.357Z,4.70
2018-01-19T16:56:39.743Z,4.70
2018-01-19T16:59:08.872Z,4.60
2018-01-19T17:01:37.168Z,4.60
2018-01-19T17:04:05.612Z,4.60
2018-01-19T17:06:33.892Z,4.50
2018-01-19T17:09:02.964Z,4.40
2018-01-19T17:11:31.252Z,4.40
2018-01-19T17:13:59.556Z,4.40
2018-01-19T17:16:27.860Z,4.20
2018-01-19T17:18:56.929Z,4.00
2018-01-19T17:21:25.987Z,4.00
2018-01-19T17:23:55.065Z,4.00
2018-01-19T17:26:24.132Z,3.90
2018-01-19T17:28:52.445Z,3.90
2018-01-19T17:31:20.722Z,3.80
2018-01-19T17:33:49.111Z,3.80
2018-01-19T17:36:17.426Z,3.70
2018-01-19T17:38:45.949Z,3.60
2018-01-19T17:41:14.245Z,3.60
2018-01-19T17:43:42.553Z,3.60
2018-01-19T17:46:10.876Z,3.60
2018-01-19T17:48:39.956Z,3.70
2018-01-19T17:51:09.017Z,3.70
2018-01-19T17:53:37.320Z,3.60
2018-01-19T17:56:05.646Z,3.60
2018-01-19T17:58:34.701Z,3.70
2018-01-19T18:01:02.989Z,3.60
2018-01-19T18:03:31.409Z,3.70
2018-01-19T18:05:59.729Z,3.60
2018-01-19T18:08:28.069Z,3.60
2018-01-19T18:10:56.348Z,3.70
2018-01-19T18:13:24.964Z,3.60
2018-01-19T18:15:54.085Z,3.50
2018-01-19T18:18:24.183Z,3.50
2018-01-19T18:20:52.514Z,3.50
2018-01-19T18:23:20.804Z,3.30
2018-01-19T18:25:49.080Z,3.20
2018-01-19T18:28:17.443Z,3.10
2018-01-19T18:30:46.512Z,3.10
2018-01-19T18:33:15.577Z,3.00
2018-01-19T18:35:43.893Z,3.00
2018-01-19T18:38:12.365Z,3.00
2018-01-19T18:40:40.873Z,3.00
2018-01-19T18:43:09.184Z,3.00
2018-01-19T18:45:37.474Z,3.00
2018-01-19T18:48:05.787Z,2.90
2018-01-19T18:50:34.133Z,3.00
2018-01-19T18:53:06.248Z,3.00
2018-01-19T18:55:35.377Z,2.90
2018-01-19T18:58:03.686Z,2.90
2018-01-19T19:00:32.614Z,2.90
2018-01-19T19:03:01.976Z,2.80
2018-01-19T19:05:30.583Z,2.90
2018-01-19T19:07:58.896Z,3.00
2018-01-19T19:10:27.197Z,2.80
2018-01-19T19:12:56.269Z,2.60
2018-01-19T19:15:25.387Z,2.60
2018-01-19T19:17:53.792Z,2.50
2018-01-19T19:20:22.870Z,2.50
2018-01-19T19:22:51.227Z,2.40
2018-01-19T19:25:20.288Z,2.40
2018-01-19T19:27:48.590Z,2.30
2018-01-19T19:30:16.918Z,2.30
2018-01-19T19:32:46.015Z,2.30
2018-01-19T19:35:14.354Z,2.30
2018-01-19T19:37:42.666Z,2.20
2018-01-19T19:40:11.733Z,2.20
2018-01-19T19:42:40.026Z,2.20
2018-01-19T19:45:09.888Z,2.20
2018-01-19T19:47:38.179Z,2.10
2018-01-19T19:50:06.727Z,2.10
2018-01-19T19:52:35.035Z,2.10
2018-01-19T19:55:08.433Z,2.10
2018-01-19T19:57:36.767Z,2.00
2018-01-19T20:00:05.159Z,2.00
2018-01-19T20:02:34.244Z,2.10
2018-01-19T20:05:03.466Z,2.10
2018-01-19T20:07:31.805Z,2.00
2018-01-19T20:10:00.097Z,2.10
2018-01-19T20:12:28.431Z,2.10
2018-01-19T20:14:57.519Z,2.00
2018-01-19T20:17:25.818Z,2.00
2018-01-19T20:19:55.748Z,2.00
2018-01-19T20:22:25.008Z,2.00
2018-01-19T20:24:54.107Z,2.00
2018-01-19T20:27:23.363Z,1.90
2018-01-19T20:29:51.657Z,2.00
2018-01-19T20:32:19.992Z,2.10
2018-01-19T20:34:48.284Z,2.10
2018-01-19T20:37:17.377Z,2.20
2018-01-19T20:39:45.675Z,2.20
2018-01-19T20:42:14.008Z,2.20
2018-01-19T20:44:42.319Z,2.10
2018-01-19T20:47:10.612Z,2.10
2018-01-19T20:49:39.204Z,2.10
2018-01-19T20:52:07.501Z,2.10
2018-01-19T20:54:36.559Z,2.00
2018-01-19T20:57:04.888Z,2.00
2018-01-19T20:59:33.179Z,2.00
2018-01-19T21:02:02.244Z,2.10
2018-01-19T21:04:30.569Z,2.10
2018-01-19T21:06:58.865Z,2.10
2018-01-19T21:09:27.172Z,2.00
2018-01-19T21:11:55.504Z,2.00
2018-01-19T21:14:24.560Z,2.10
2018-01-19T21:16:53.625Z,2.20
2018-01-19T21:19:21.948Z,2.20
2018-01-19T21:21:50.374Z,2.20
2018-01-19T21:24:18.805Z,2.20
2018-01-19T21:26:47.891Z,2.00
2018-01-19T21:29:16.976Z,2.10
2018-01-19T21:31:46.040Z,2.00
2018-01-19T21:34:15.136Z,1.90
2018-01-19T21:36:43.428Z,1.90
2018-01-19T21:39:11.736Z,1.90
2018-01-19T21:41:40.830Z,2.10
2018-01-19T21:44:09.693Z,2.00
2018-01-19T21:46:37.994Z,2.10
2018-01-19T21:49:06.280Z,2.10
2018-01-19T21:51:35.359Z,2.00
2018-01-19T21:54:04.889Z,1.90
2018-01-19T21:56:33.228Z,1.90
2018-01-19T21:59:01.694Z,1.90
2018-01-19T22:01:30.013Z,1.90
2018-01-19T22:03:59.098Z,1.90
2018-01-19T22:06:27.421Z,1.90
2018-01-19T22:08:55.731Z,1.90
2018-01-19T22:11:24.059Z,1.80
2018-01-19T22:13:52.347Z,1.90
2018-01-19T22:16:21.236Z,1.90
2018-01-19T22:18:49.563Z,1.90
2018-01-19T22:21:18.206Z,2.00
2018-01-19T22:23:46.516Z,1.80
2018-01-19T22:26:14.849Z,1.80
2018-01-19T22:28:43.903Z,1.80
2018-01-19T22:31:12.274Z,1.80
2018-01-19T22:33:40.570Z,1.70
2018-01-19T22:36:09.196Z,1.70
2018-01-19T22:38:37.626Z,1.70
2018-01-19T22:41:05.893Z,1.50
2018-01-19T22:43:34.219Z,1.50
2018-01-19T22:46:02.586Z,1.50
2018-01-19T22:48:31.679Z,1.40
2018-01-19T22:51:01.601Z,1.40
2018-01-19T22:53:29.930Z,1.30
2018-01-19T22:55:58.284Z,1.30
2018-01-19T22:58:27.457Z,1.30
2018-01-19T23:00:56.629Z,1.10
2018-01-19T23:06:04.030Z,1.10
2018-01-19T23:08:32.366Z,1.10
2018-01-19T23:11:00.653Z,1.10
2018-01-19T23:13:30.221Z,0.60
2018-01-19T23:15:58.547Z,1.20
2018-01-19T23:18:26.844Z,1.30
2018-01-19T23:20:55.982Z,1.20
2018-01-19T23:23:24.350Z,1.30
2018-01-19T23:25:52.639Z,1.40
2018-01-19T23:28:20.982Z,1.30
2018-01-19T23:30:49.553Z,1.40
2018-01-19T23:33:18.110Z,1.30
2018-01-19T23:35:46.434Z,1.30
2018-01-19T23:38:14.723Z,1.30
2018-01-19T23:40:44.287Z,1.30
2018-01-19T23:43:13.351Z,1.20
2018-01-19T23:45:41.675Z,1.10
2018-01-19T23:48:09.992Z,1.20
2018-01-19T23:50:39.053Z,1.10
2018-01-19T23:53:07.393Z,1.10
2018-01-19T23:55:36.665Z,1.10
2018-01-19T23:58:04.948Z,1.10
